sensor_id;sensor_type;location;lat;lon;timestamp;P1;durP1;ratioP1;P2;durP2;ratioP2
6549;SDS011;15142;48.888;9.134;2023-05-07T00:01:13;3.90;;;3.50;;
6549;SDS011;15142;48.888;9.134;2023-05-07T00:03:45;2.73;;;2.53;;
6549;SDS011;15142;48.888;9.134;2023-05-07T00:06:14;3.07;;;2.87;;
6549;SDS011;15142;48.888;9.134;2023-05-07T00:08:43;3.80;;;3.50;;
6549;SDS011;15142;48.888;9.134;2023-05-07T00:11:11;5.17;;;3.80;;
6549;SDS011;15142;48.888;9.134;2023-05-07T00:13:40;3.70;;;3.23;;
6549;SDS011;15142;48.888;9.134;2023-05-07T00:16:09;2.90;;;2.70;;
6549;SDS011;15142;48.888;9.134;2023-05-07T00:18:38;3.63;;;3.33;;
6549;SDS011;15142;48.888;9.134;2023-05-07T00:21:09;3.00;;;2.70;;
6549;SDS011;15142;48.888;9.134;2023-05-07T00:23:38;9.13;;;2.73;;
6549;SDS011;15142;48.888;9.134;2023-05-07T00:26:07;14.47;;;3.20;;
6549;SDS011;15142;48.888;9.134;2023-05-07T00:28:36;6.10;;;3.10;;
6549;SDS011;15142;48.888;9.134;2023-05-07T00:31:05;3.57;;;3.00;;
6549;SDS011;15142;48.888;9.134;2023-05-07T00:33:34;3.73;;;3.37;;
6549;SDS011;15142;48.888;9.134;2023-05-07T00:36:03;3.50;;;3.20;;
6549;SDS011;15142;48.888;9.134;2023-05-07T00:38:35;3.37;;;3.07;;
6549;SDS011;15142;48.888;9.134;2023-05-07T00:41:04;4.40;;;3.30;;
6549;SDS011;15142;48.888;9.134;2023-05-07T00:43:33;3.03;;;2.83;;
6549;SDS011;15142;48.888;9.134;2023-05-07T00:46:02;3.83;;;3.40;;
6549;SDS011;15142;48.888;9.134;2023-05-07T00:48:30;3.47;;;3.17;;
6549;SDS011;15142;48.888;9.134;2023-05-07T00:51:00;3.30;;;3.00;;
6549;SDS011;15142;48.888;9.134;2023-05-07T00:53:29;3.80;;;3.50;;
6549;SDS011;15142;48.888;9.134;2023-05-07T00:56:01;4.10;;;3.10;;
6549;SDS011;15142;48.888;9.134;2023-05-07T00:58:31;2.80;;;2.60;;
6549;SDS011;15142;48.888;9.134;2023-05-07T01:00:59;3.70;;;3.40;;
6549;SDS011;15142;48.888;9.134;2023-05-07T01:03:28;4.63;;;3.50;;
6549;SDS011;15142;48.888;9.134;2023-05-07T01:05:57;3.37;;;3.17;;
6549;SDS011;15142;48.888;9.134;2023-05-07T01:08:28;8.13;;;3.60;;
6549;SDS011;15142;48.888;9.134;2023-05-07T01:11:03;3.17;;;2.97;;
6549;SDS011;15142;48.888;9.134;2023-05-07T01:13:32;4.20;;;3.07;;
6549;SDS011;15142;48.888;9.134;2023-05-07T01:16:03;4.33;;;2.80;;
6549;SDS011;15142;48.888;9.134;2023-05-07T01:18:32;4.80;;;3.57;;
6549;SDS011;15142;48.888;9.134;2023-05-07T01:21:01;3.73;;;3.37;;
6549;SDS011;15142;48.888;9.134;2023-05-07T01:23:35;4.40;;;3.53;;
6549;SDS011;15142;48.888;9.134;2023-05-07T01:26:04;3.73;;;3.40;;
6549;SDS011;15142;48.888;9.134;2023-05-07T01:28:34;3.73;;;3.10;;
6549;SDS011;15142;48.888;9.134;2023-05-07T01:31:03;5.17;;;2.80;;
6549;SDS011;15142;48.888;9.134;2023-05-07T01:33:34;3.57;;;3.37;;
6549;SDS011;15142;48.888;9.134;2023-05-07T01:36:05;2.87;;;2.67;;
6549;SDS011;15142;48.888;9.134;2023-05-07T01:38:38;5.90;;;3.57;;
6549;SDS011;15142;48.888;9.134;2023-05-07T01:41:09;3.20;;;2.80;;
6549;SDS011;15142;48.888;9.134;2023-05-07T01:43:39;2.87;;;2.73;;
6549;SDS011;15142;48.888;9.134;2023-05-07T01:46:09;6.47;;;3.23;;
6549;SDS011;15142;48.888;9.134;2023-05-07T01:48:38;2.93;;;2.73;;
6549;SDS011;15142;48.888;9.134;2023-05-07T01:51:11;3.17;;;2.87;;
6549;SDS011;15142;48.888;9.134;2023-05-07T01:53:43;3.60;;;3.30;;
6549;SDS011;15142;48.888;9.134;2023-05-07T01:56:17;2.90;;;2.70;;
6549;SDS011;15142;48.888;9.134;2023-05-07T01:58:47;4.70;;;4.00;;
6549;SDS011;15142;48.888;9.134;2023-05-07T02:01:16;4.57;;;4.17;;
6549;SDS011;15142;48.888;9.134;2023-05-07T02:03:46;3.30;;;3.00;;
6549;SDS011;15142;48.888;9.134;2023-05-07T02:06:21;4.13;;;2.73;;
6549;SDS011;15142;48.888;9.134;2023-05-07T02:08:57;3.40;;;3.00;;
6549;SDS011;15142;48.888;9.134;2023-05-07T02:11:25;3.50;;;3.20;;
6549;SDS011;15142;48.888;9.134;2023-05-07T02:13:54;3.60;;;3.30;;
6549;SDS011;15142;48.888;9.134;2023-05-07T02:16:23;3.73;;;3.30;;
6549;SDS011;15142;48.888;9.134;2023-05-07T02:18:52;2.70;;;2.50;;
6549;SDS011;15142;48.888;9.134;2023-05-07T02:21:22;5.27;;;4.20;;
6549;SDS011;15142;48.888;9.134;2023-05-07T02:23:50;3.03;;;2.73;;
6549;SDS011;15142;48.888;9.134;2023-05-07T02:26:22;4.70;;;3.00;;
6549;SDS011;15142;48.888;9.134;2023-05-07T02:28:51;4.77;;;3.67;;
6549;SDS011;15142;48.888;9.134;2023-05-07T02:31:21;4.63;;;3.80;;
6549;SDS011;15142;48.888;9.134;2023-05-07T02:33:49;3.57;;;3.30;;
6549;SDS011;15142;48.888;9.134;2023-05-07T02:36:18;3.27;;;2.50;;
6549;SDS011;15142;48.888;9.134;2023-05-07T02:38:59;3.50;;;3.20;;
6549;SDS011;15142;48.888;9.134;2023-05-07T02:41:31;3.37;;;2.93;;
6549;SDS011;15142;48.888;9.134;2023-05-07T02:44:00;5.40;;;3.93;;
6549;SDS011;15142;48.888;9.134;2023-05-07T02:46:29;3.87;;;3.60;;
6549;SDS011;15142;48.888;9.134;2023-05-07T02:49:03;4.33;;;3.53;;
6549;SDS011;15142;48.888;9.134;2023-05-07T02:51:32;3.47;;;3.17;;
6549;SDS011;15142;48.888;9.134;2023-05-07T02:54:05;3.13;;;2.93;;
6549;SDS011;15142;48.888;9.134;2023-05-07T02:56:37;3.53;;;2.63;;
6549;SDS011;15142;48.888;9.134;2023-05-07T02:59:06;5.87;;;3.70;;
6549;SDS011;15142;48.888;9.134;2023-05-07T03:01:39;4.03;;;3.30;;
6549;SDS011;15142;48.888;9.134;2023-05-07T03:04:10;6.13;;;4.00;;
6549;SDS011;15142;48.888;9.134;2023-05-07T03:06:39;3.67;;;3.20;;
6549;SDS011;15142;48.888;9.134;2023-05-07T03:09:08;3.83;;;3.50;;
6549;SDS011;15142;48.888;9.134;2023-05-07T03:11:40;7.10;;;3.13;;
6549;SDS011;15142;48.888;9.134;2023-05-07T03:14:09;3.10;;;2.80;;
6549;SDS011;15142;48.888;9.134;2023-05-07T03:16:38;6.83;;;4.57;;
6549;SDS011;15142;48.888;9.134;2023-05-07T03:19:06;4.57;;;3.70;;
6549;SDS011;15142;48.888;9.134;2023-05-07T03:21:35;3.73;;;3.43;;
6549;SDS011;15142;48.888;9.134;2023-05-07T03:24:05;4.57;;;4.07;;
6549;SDS011;15142;48.888;9.134;2023-05-07T03:26:34;3.67;;;2.90;;
6549;SDS011;15142;48.888;9.134;2023-05-07T03:29:06;4.97;;;4.47;;
6549;SDS011;15142;48.888;9.134;2023-05-07T03:31:35;3.60;;;3.30;;
6549;SDS011;15142;48.888;9.134;2023-05-07T03:34:04;4.60;;;3.20;;
6549;SDS011;15142;48.888;9.134;2023-05-07T03:36:34;4.10;;;3.57;;
6549;SDS011;15142;48.888;9.134;2023-05-07T03:39:07;5.20;;;3.83;;
6549;SDS011;15142;48.888;9.134;2023-05-07T03:41:39;5.03;;;3.10;;
6549;SDS011;15142;48.888;9.134;2023-05-07T03:44:11;5.87;;;4.80;;
6549;SDS011;15142;48.888;9.134;2023-05-07T03:46:40;6.33;;;4.30;;
6549;SDS011;15142;48.888;9.134;2023-05-07T03:49:10;4.03;;;3.63;;
6549;SDS011;15142;48.888;9.134;2023-05-07T03:51:39;7.00;;;3.13;;
6549;SDS011;15142;48.888;9.134;2023-05-07T03:54:09;4.03;;;3.73;;
6549;SDS011;15142;48.888;9.134;2023-05-07T03:56:42;6.00;;;3.80;;
6549;SDS011;15142;48.888;9.134;2023-05-07T03:59:14;4.47;;;3.40;;
6549;SDS011;15142;48.888;9.134;2023-05-07T04:01:45;3.40;;;3.10;;
6549;SDS011;15142;48.888;9.134;2023-05-07T04:04:18;5.17;;;4.03;;
6549;SDS011;15142;48.888;9.134;2023-05-07T04:06:47;4.10;;;3.23;;
6549;SDS011;15142;48.888;9.134;2023-05-07T04:09:17;10.13;;;3.63;;
6549;SDS011;15142;48.888;9.134;2023-05-07T04:11:47;4.03;;;3.27;;
6549;SDS011;15142;48.888;9.134;2023-05-07T04:14:18;4.47;;;4.17;;
6549;SDS011;15142;48.888;9.134;2023-05-07T04:16:48;5.40;;;2.83;;
6549;SDS011;15142;48.888;9.134;2023-05-07T04:19:18;3.63;;;3.33;;
6549;SDS011;15142;48.888;9.134;2023-05-07T04:21:50;3.90;;;3.20;;
6549;SDS011;15142;48.888;9.134;2023-05-07T04:24:19;3.83;;;3.47;;
6549;SDS011;15142;48.888;9.134;2023-05-07T04:26:48;6.00;;;3.27;;
6549;SDS011;15142;48.888;9.134;2023-05-07T04:29:22;3.23;;;3.00;;
6549;SDS011;15142;48.888;9.134;2023-05-07T04:31:51;3.30;;;3.00;;
6549;SDS011;15142;48.888;9.134;2023-05-07T04:34:21;5.47;;;4.53;;
6549;SDS011;15142;48.888;9.134;2023-05-07T04:36:51;3.90;;;2.70;;
6549;SDS011;15142;48.888;9.134;2023-05-07T04:39:20;5.23;;;3.83;;
6549;SDS011;15142;48.888;9.134;2023-05-07T04:41:49;7.83;;;3.10;;
6549;SDS011;15142;48.888;9.134;2023-05-07T04:44:17;5.07;;;3.40;;
6549;SDS011;15142;48.888;9.134;2023-05-07T04:46:50;3.70;;;2.90;;
6549;SDS011;15142;48.888;9.134;2023-05-07T04:49:19;4.63;;;3.77;;
6549;SDS011;15142;48.888;9.134;2023-05-07T04:51:49;3.10;;;2.80;;
6549;SDS011;15142;48.888;9.134;2023-05-07T04:54:21;6.03;;;3.30;;
6549;SDS011;15142;48.888;9.134;2023-05-07T04:56:51;4.60;;;3.87;;
6549;SDS011;15142;48.888;9.134;2023-05-07T04:59:20;3.27;;;3.03;;
6549;SDS011;15142;48.888;9.134;2023-05-07T05:01:52;4.10;;;3.53;;
6549;SDS011;15142;48.888;9.134;2023-05-07T05:04:21;4.07;;;3.40;;
6549;SDS011;15142;48.888;9.134;2023-05-07T05:06:49;4.27;;;3.87;;
6549;SDS011;15142;48.888;9.134;2023-05-07T05:09:18;3.60;;;3.30;;
6549;SDS011;15142;48.888;9.134;2023-05-07T05:11:47;4.10;;;3.60;;
6549;SDS011;15142;48.888;9.134;2023-05-07T05:14:16;4.00;;;3.70;;
6549;SDS011;15142;48.888;9.134;2023-05-07T05:16:45;4.40;;;3.27;;
6549;SDS011;15142;48.888;9.134;2023-05-07T05:19:16;3.27;;;2.90;;
6549;SDS011;15142;48.888;9.134;2023-05-07T05:21:45;4.43;;;2.70;;
6549;SDS011;15142;48.888;9.134;2023-05-07T05:24:14;3.73;;;3.40;;
6549;SDS011;15142;48.888;9.134;2023-05-07T05:26:43;3.80;;;3.30;;
6549;SDS011;15142;48.888;9.134;2023-05-07T05:29:12;3.33;;;3.07;;
6549;SDS011;15142;48.888;9.134;2023-05-07T05:31:41;3.57;;;2.90;;
6549;SDS011;15142;48.888;9.134;2023-05-07T05:34:10;4.00;;;3.57;;
6549;SDS011;15142;48.888;9.134;2023-05-07T05:36:43;3.83;;;3.50;;
6549;SDS011;15142;48.888;9.134;2023-05-07T05:39:13;3.60;;;3.30;;
6549;SDS011;15142;48.888;9.134;2023-05-07T05:41:45;3.63;;;3.17;;
6549;SDS011;15142;48.888;9.134;2023-05-07T05:44:14;4.27;;;3.87;;
6549;SDS011;15142;48.888;9.134;2023-05-07T05:46:43;3.03;;;2.80;;
6549;SDS011;15142;48.888;9.134;2023-05-07T05:49:12;6.43;;;3.40;;
6549;SDS011;15142;48.888;9.134;2023-05-07T05:51:44;7.00;;;3.63;;
6549;SDS011;15142;48.888;9.134;2023-05-07T05:54:13;7.40;;;5.43;;
6549;SDS011;15142;48.888;9.134;2023-05-07T05:56:43;3.23;;;3.03;;
6549;SDS011;15142;48.888;9.134;2023-05-07T05:59:13;2.80;;;2.57;;
6549;SDS011;15142;48.888;9.134;2023-05-07T06:01:42;3.93;;;3.07;;
6549;SDS011;15142;48.888;9.134;2023-05-07T06:04:11;2.57;;;2.43;;
6549;SDS011;15142;48.888;9.134;2023-05-07T06:06:39;3.90;;;3.00;;
6549;SDS011;15142;48.888;9.134;2023-05-07T06:09:11;2.57;;;2.37;;
6549;SDS011;15142;48.888;9.134;2023-05-07T06:11:42;2.60;;;2.40;;
6549;SDS011;15142;48.888;9.134;2023-05-07T06:14:12;3.73;;;2.63;;
6549;SDS011;15142;48.888;9.134;2023-05-07T06:16:41;2.07;;;1.97;;
6549;SDS011;15142;48.888;9.134;2023-05-07T06:19:10;2.40;;;2.30;;
6549;SDS011;15142;48.888;9.134;2023-05-07T06:21:40;2.77;;;2.10;;
6549;SDS011;15142;48.888;9.134;2023-05-07T06:24:11;2.43;;;2.23;;
6549;SDS011;15142;48.888;9.134;2023-05-07T06:26:40;2.07;;;1.97;;
6549;SDS011;15142;48.888;9.134;2023-05-07T06:29:09;3.60;;;2.60;;
6549;SDS011;15142;48.888;9.134;2023-05-07T06:31:40;2.80;;;2.60;;
6549;SDS011;15142;48.888;9.134;2023-05-07T06:34:10;2.70;;;2.50;;
6549;SDS011;15142;48.888;9.134;2023-05-07T06:36:40;2.37;;;2.27;;
6549;SDS011;15142;48.888;9.134;2023-05-07T06:39:21;2.33;;;2.23;;
6549;SDS011;15142;48.888;9.134;2023-05-07T06:41:51;2.23;;;2.13;;
6549;SDS011;15142;48.888;9.134;2023-05-07T06:44:25;2.80;;;2.60;;
6549;SDS011;15142;48.888;9.134;2023-05-07T06:47:03;4.20;;;2.27;;
6549;SDS011;15142;48.888;9.134;2023-05-07T06:49:33;2.10;;;2.00;;
6549;SDS011;15142;48.888;9.134;2023-05-07T06:52:03;2.20;;;2.10;;
6549;SDS011;15142;48.888;9.134;2023-05-07T06:54:35;1.70;;;1.67;;
6549;SDS011;15142;48.888;9.134;2023-05-07T06:57:04;2.17;;;1.97;;
6549;SDS011;15142;48.888;9.134;2023-05-07T06:59:32;2.90;;;1.83;;
6549;SDS011;15142;48.888;9.134;2023-05-07T07:02:01;3.03;;;2.03;;
6549;SDS011;15142;48.888;9.134;2023-05-07T07:04:31;2.23;;;2.13;;
6549;SDS011;15142;48.888;9.134;2023-05-07T07:07:04;2.83;;;2.63;;
6549;SDS011;15142;48.888;9.134;2023-05-07T07:09:37;2.07;;;1.97;;
6549;SDS011;15142;48.888;9.134;2023-05-07T07:12:07;2.50;;;2.30;;
6549;SDS011;15142;48.888;9.134;2023-05-07T07:14:39;3.07;;;1.90;;
6549;SDS011;15142;48.888;9.134;2023-05-07T07:17:08;2.07;;;1.97;;
6549;SDS011;15142;48.888;9.134;2023-05-07T07:19:37;2.10;;;2.00;;
6549;SDS011;15142;48.888;9.134;2023-05-07T07:22:06;1.87;;;1.73;;
6549;SDS011;15142;48.888;9.134;2023-05-07T07:24:37;2.07;;;1.90;;
6549;SDS011;15142;48.888;9.134;2023-05-07T07:27:09;4.93;;;2.37;;
6549;SDS011;15142;48.888;9.134;2023-05-07T07:29:38;2.70;;;2.00;;
6549;SDS011;15142;48.888;9.134;2023-05-07T07:32:07;3.53;;;1.90;;
6549;SDS011;15142;48.888;9.134;2023-05-07T07:34:36;2.30;;;2.20;;
6549;SDS011;15142;48.888;9.134;2023-05-07T07:37:05;2.93;;;2.67;;
6549;SDS011;15142;48.888;9.134;2023-05-07T07:39:39;2.43;;;2.23;;
6549;SDS011;15142;48.888;9.134;2023-05-07T07:42:08;4.50;;;3.30;;
6549;SDS011;15142;48.888;9.134;2023-05-07T07:44:38;3.13;;;2.80;;
6549;SDS011;15142;48.888;9.134;2023-05-07T07:47:09;2.53;;;2.33;;
6549;SDS011;15142;48.888;9.134;2023-05-07T07:49:39;2.60;;;2.40;;
6549;SDS011;15142;48.888;9.134;2023-05-07T07:52:09;1.90;;;1.80;;
6549;SDS011;15142;48.888;9.134;2023-05-07T07:54:41;4.30;;;2.40;;
6549;SDS011;15142;48.888;9.134;2023-05-07T07:57:11;2.80;;;2.60;;
6549;SDS011;15142;48.888;9.134;2023-05-07T07:59:40;2.93;;;2.27;;
6549;SDS011;15142;48.888;9.134;2023-05-07T08:02:12;3.50;;;3.20;;
6549;SDS011;15142;48.888;9.134;2023-05-07T08:04:41;2.80;;;2.60;;
6549;SDS011;15142;48.888;9.134;2023-05-07T08:07:11;3.13;;;2.00;;
6549;SDS011;15142;48.888;9.134;2023-05-07T08:09:46;2.03;;;1.80;;
6549;SDS011;15142;48.888;9.134;2023-05-07T08:12:17;7.43;;;2.43;;
6549;SDS011;15142;48.888;9.134;2023-05-07T08:14:47;3.00;;;2.80;;
6549;SDS011;15142;48.888;9.134;2023-05-07T08:17:16;2.37;;;2.27;;
6549;SDS011;15142;48.888;9.134;2023-05-07T08:19:49;3.13;;;2.93;;
6549;SDS011;15142;48.888;9.134;2023-05-07T08:22:18;2.57;;;2.40;;
6549;SDS011;15142;48.888;9.134;2023-05-07T08:24:52;4.10;;;3.03;;
6549;SDS011;15142;48.888;9.134;2023-05-07T08:27:21;3.70;;;2.73;;
6549;SDS011;15142;48.888;9.134;2023-05-07T08:29:50;2.00;;;1.90;;
6549;SDS011;15142;48.888;9.134;2023-05-07T08:32:20;2.67;;;2.47;;
6549;SDS011;15142;48.888;9.134;2023-05-07T08:34:49;3.40;;;2.43;;
6549;SDS011;15142;48.888;9.134;2023-05-07T08:37:18;4.43;;;3.30;;
6549;SDS011;15142;48.888;9.134;2023-05-07T08:39:47;2.57;;;2.37;;
6549;SDS011;15142;48.888;9.134;2023-05-07T08:42:23;3.00;;;2.40;;
6549;SDS011;15142;48.888;9.134;2023-05-07T08:44:52;3.23;;;2.50;;
6549;SDS011;15142;48.888;9.134;2023-05-07T08:47:26;2.80;;;2.60;;
6549;SDS011;15142;48.888;9.134;2023-05-07T08:50:01;4.20;;;2.90;;
6549;SDS011;15142;48.888;9.134;2023-05-07T08:52:31;2.97;;;2.73;;
6549;SDS011;15142;48.888;9.134;2023-05-07T08:55:00;5.80;;;3.00;;
6549;SDS011;15142;48.888;9.134;2023-05-07T08:57:34;4.10;;;3.47;;
6549;SDS011;15142;48.888;9.134;2023-05-07T09:00:05;2.50;;;2.30;;
6549;SDS011;15142;48.888;9.134;2023-05-07T09:02:37;7.63;;;3.10;;
6549;SDS011;15142;48.888;9.134;2023-05-07T09:05:08;3.60;;;2.50;;
6549;SDS011;15142;48.888;9.134;2023-05-07T09:07:37;3.10;;;2.90;;
6549;SDS011;15142;48.888;9.134;2023-05-07T09:10:08;9.23;;;2.90;;
6549;SDS011;15142;48.888;9.134;2023-05-07T09:12:41;3.00;;;2.70;;
6549;SDS011;15142;48.888;9.134;2023-05-07T09:15:12;3.57;;;3.17;;
6549;SDS011;15142;48.888;9.134;2023-05-07T09:17:42;3.10;;;2.90;;
6549;SDS011;15142;48.888;9.134;2023-05-07T09:20:12;2.77;;;2.57;;
6549;SDS011;15142;48.888;9.134;2023-05-07T09:22:42;5.83;;;3.10;;
6549;SDS011;15142;48.888;9.134;2023-05-07T09:25:14;3.00;;;2.80;;
6549;SDS011;15142;48.888;9.134;2023-05-07T09:27:45;3.70;;;3.00;;
6549;SDS011;15142;48.888;9.134;2023-05-07T09:30:14;4.90;;;3.40;;
6549;SDS011;15142;48.888;9.134;2023-05-07T09:32:43;3.80;;;2.93;;
6549;SDS011;15142;48.888;9.134;2023-05-07T09:35:17;2.63;;;2.43;;
6549;SDS011;15142;48.888;9.134;2023-05-07T09:37:51;2.90;;;2.70;;
6549;SDS011;15142;48.888;9.134;2023-05-07T09:40:21;2.63;;;2.43;;
6549;SDS011;15142;48.888;9.134;2023-05-07T09:42:55;4.37;;;2.80;;
6549;SDS011;15142;48.888;9.134;2023-05-07T09:45:24;3.23;;;2.80;;
6549;SDS011;15142;48.888;9.134;2023-05-07T09:47:55;2.83;;;2.57;;
6549;SDS011;15142;48.888;9.134;2023-05-07T09:50:27;2.10;;;2.00;;
6549;SDS011;15142;48.888;9.134;2023-05-07T09:52:58;2.10;;;2.00;;
6549;SDS011;15142;48.888;9.134;2023-05-07T09:55:27;2.07;;;1.97;;
6549;SDS011;15142;48.888;9.134;2023-05-07T09:57:59;1.80;;;1.70;;
6549;SDS011;15142;48.888;9.134;2023-05-07T10:00:28;3.07;;;2.63;;
6549;SDS011;15142;48.888;9.134;2023-05-07T10:03:06;1.90;;;1.80;;
6549;SDS011;15142;48.888;9.134;2023-05-07T10:05:45;2.30;;;2.10;;
6549;SDS011;15142;48.888;9.134;2023-05-07T10:08:15;2.60;;;2.40;;
6549;SDS011;15142;48.888;9.134;2023-05-07T10:10:47;2.03;;;1.87;;
6549;SDS011;15142;48.888;9.134;2023-05-07T10:13:24;1.90;;;1.77;;
6549;SDS011;15142;48.888;9.134;2023-05-07T10:15:56;2.70;;;2.47;;
6549;SDS011;15142;48.888;9.134;2023-05-07T10:21:06;2.80;;;2.60;;
6549;SDS011;15142;48.888;9.134;2023-05-07T10:23:37;2.10;;;2.00;;
6549;SDS011;15142;48.888;9.134;2023-05-07T10:26:08;2.10;;;2.00;;
6549;SDS011;15142;48.888;9.134;2023-05-07T10:28:40;1.80;;;1.70;;
6549;SDS011;15142;48.888;9.134;2023-05-07T10:31:15;2.40;;;1.70;;
6549;SDS011;15142;48.888;9.134;2023-05-07T10:33:57;2.03;;;1.93;;
6549;SDS011;15142;48.888;9.134;2023-05-07T10:36:29;3.67;;;2.60;;
6549;SDS011;15142;48.888;9.134;2023-05-07T10:39:00;2.07;;;1.83;;
6549;SDS011;15142;48.888;9.134;2023-05-07T10:41:29;2.40;;;2.20;;
6549;SDS011;15142;48.888;9.134;2023-05-07T10:44:01;2.70;;;2.30;;
6549;SDS011;15142;48.888;9.134;2023-05-07T10:46:32;2.23;;;2.07;;
6549;SDS011;15142;48.888;9.134;2023-05-07T10:49:15;2.20;;;2.03;;
6549;SDS011;15142;48.888;9.134;2023-05-07T10:52:14;2.67;;;2.47;;
6549;SDS011;15142;48.888;9.134;2023-05-07T10:58:22;5.70;;;2.10;;
6549;SDS011;15142;48.888;9.134;2023-05-07T11:00:59;2.70;;;2.10;;
6549;SDS011;15142;48.888;9.134;2023-05-07T11:03:36;1.90;;;1.80;;
6549;SDS011;15142;48.888;9.134;2023-05-07T11:10:02;2.17;;;1.70;;
6549;SDS011;15142;48.888;9.134;2023-05-07T11:12:53;5.37;;;2.57;;
6549;SDS011;15142;48.888;9.134;2023-05-07T11:15:43;1.20;;;1.20;;
6549;SDS011;15142;48.888;9.134;2023-05-07T11:18:25;2.13;;;2.03;;
6549;SDS011;15142;48.888;9.134;2023-05-07T11:21:33;2.30;;;2.10;;
6549;SDS011;15142;48.888;9.134;2023-05-07T11:24:23;4.90;;;1.53;;
6549;SDS011;15142;48.888;9.134;2023-05-07T11:26:56;4.67;;;3.20;;
6549;SDS011;15142;48.888;9.134;2023-05-07T11:29:27;3.67;;;1.30;;
6549;SDS011;15142;48.888;9.134;2023-05-07T11:32:02;2.13;;;1.90;;
6549;SDS011;15142;48.888;9.134;2023-05-07T11:34:41;4.63;;;1.90;;
6549;SDS011;15142;48.888;9.134;2023-05-07T11:37:10;8.50;;;1.87;;
6549;SDS011;15142;48.888;9.134;2023-05-07T11:39:48;4.13;;;2.10;;
6549;SDS011;15142;48.888;9.134;2023-05-07T11:42:27;2.17;;;1.57;;
6549;SDS011;15142;48.888;9.134;2023-05-07T11:44:56;2.63;;;1.73;;
6549;SDS011;15142;48.888;9.134;2023-05-07T11:47:25;4.07;;;1.63;;
6549;SDS011;15142;48.888;9.134;2023-05-07T11:49:57;1.90;;;1.80;;
6549;SDS011;15142;48.888;9.134;2023-05-07T11:52:31;2.27;;;1.77;;
6549;SDS011;15142;48.888;9.134;2023-05-07T11:55:01;1.73;;;1.63;;
6549;SDS011;15142;48.888;9.134;2023-05-07T11:57:30;2.83;;;1.70;;
6549;SDS011;15142;48.888;9.134;2023-05-07T12:00:01;1.30;;;1.20;;
6549;SDS011;15142;48.888;9.134;2023-05-07T12:02:38;1.60;;;1.50;;
6549;SDS011;15142;48.888;9.134;2023-05-07T12:05:10;6.50;;;2.10;;
6549;SDS011;15142;48.888;9.134;2023-05-07T12:07:38;1.80;;;1.40;;
6549;SDS011;15142;48.888;9.134;2023-05-07T12:10:08;2.00;;;1.60;;
6549;SDS011;15142;48.888;9.134;2023-05-07T12:12:39;1.70;;;1.60;;
6549;SDS011;15142;48.888;9.134;2023-05-07T12:15:08;2.17;;;2.03;;
6549;SDS011;15142;48.888;9.134;2023-05-07T12:17:37;1.90;;;1.60;;
6549;SDS011;15142;48.888;9.134;2023-05-07T12:20:07;1.60;;;1.50;;
6549;SDS011;15142;48.888;9.134;2023-05-07T12:22:39;1.20;;;1.20;;
6549;SDS011;15142;48.888;9.134;2023-05-07T12:25:09;2.00;;;1.77;;
6549;SDS011;15142;48.888;9.134;2023-05-07T12:27:40;1.80;;;1.70;;
6549;SDS011;15142;48.888;9.134;2023-05-07T12:30:09;2.07;;;1.43;;
6549;SDS011;15142;48.888;9.134;2023-05-07T12:32:40;1.43;;;1.33;;
6549;SDS011;15142;48.888;9.134;2023-05-07T12:35:11;1.70;;;1.60;;
6549;SDS011;15142;48.888;9.134;2023-05-07T12:37:40;2.10;;;1.37;;
6549;SDS011;15142;48.888;9.134;2023-05-07T12:40:10;1.67;;;1.57;;
6549;SDS011;15142;48.888;9.134;2023-05-07T12:42:40;2.47;;;1.17;;
6549;SDS011;15142;48.888;9.134;2023-05-07T12:45:11;1.60;;;1.47;;
6549;SDS011;15142;48.888;9.134;2023-05-07T12:47:43;2.33;;;2.13;;
6549;SDS011;15142;48.888;9.134;2023-05-07T12:50:15;2.87;;;2.07;;
6549;SDS011;15142;48.888;9.134;2023-05-07T12:52:47;1.93;;;1.77;;
6549;SDS011;15142;48.888;9.134;2023-05-07T12:55:17;2.70;;;2.60;;
6549;SDS011;15142;48.888;9.134;2023-05-07T12:57:47;3.53;;;2.57;;
6549;SDS011;15142;48.888;9.134;2023-05-07T13:00:17;2.30;;;2.20;;
6549;SDS011;15142;48.888;9.134;2023-05-07T13:02:46;2.40;;;2.20;;
6549;SDS011;15142;48.888;9.134;2023-05-07T13:05:18;2.40;;;2.27;;
6549;SDS011;15142;48.888;9.134;2023-05-07T13:07:52;4.23;;;2.03;;
6549;SDS011;15142;48.888;9.134;2023-05-07T13:10:21;1.87;;;1.67;;
6549;SDS011;15142;48.888;9.134;2023-05-07T13:12:51;2.03;;;1.83;;
6549;SDS011;15142;48.888;9.134;2023-05-07T13:15:20;2.20;;;2.10;;
6549;SDS011;15142;48.888;9.134;2023-05-07T13:17:50;1.40;;;1.30;;
6549;SDS011;15142;48.888;9.134;2023-05-07T13:20:21;1.40;;;1.30;;
6549;SDS011;15142;48.888;9.134;2023-05-07T13:22:50;0.93;;;0.80;;
6549;SDS011;15142;48.888;9.134;2023-05-07T13:25:18;1.60;;;1.20;;
6549;SDS011;15142;48.888;9.134;2023-05-07T13:27:47;0.97;;;0.97;;
6549;SDS011;15142;48.888;9.134;2023-05-07T13:30:16;0.70;;;0.70;;
6549;SDS011;15142;48.888;9.134;2023-05-07T13:32:45;1.27;;;1.17;;
6549;SDS011;15142;48.888;9.134;2023-05-07T13:35:14;1.23;;;1.13;;
6549;SDS011;15142;48.888;9.134;2023-05-07T13:37:46;2.20;;;0.97;;
6549;SDS011;15142;48.888;9.134;2023-05-07T13:40:15;1.20;;;1.13;;
6549;SDS011;15142;48.888;9.134;2023-05-07T13:42:44;1.00;;;0.90;;
6549;SDS011;15142;48.888;9.134;2023-05-07T13:45:13;6.70;;;1.10;;
6549;SDS011;15142;48.888;9.134;2023-05-07T13:47:42;1.50;;;1.40;;
6549;SDS011;15142;48.888;9.134;2023-05-07T13:50:10;2.70;;;1.47;;
6549;SDS011;15142;48.888;9.134;2023-05-07T13:52:40;3.30;;;1.60;;
6549;SDS011;15142;48.888;9.134;2023-05-07T13:55:19;1.63;;;1.07;;
6549;SDS011;15142;48.888;9.134;2023-05-07T13:57:54;2.37;;;1.30;;
6549;SDS011;15142;48.888;9.134;2023-05-07T14:00:24;2.77;;;1.00;;
6549;SDS011;15142;48.888;9.134;2023-05-07T14:02:53;1.53;;;1.43;;
6549;SDS011;15142;48.888;9.134;2023-05-07T14:05:22;1.13;;;1.13;;
6549;SDS011;15142;48.888;9.134;2023-05-07T14:07:52;1.30;;;1.00;;
6549;SDS011;15142;48.888;9.134;2023-05-07T14:10:23;2.10;;;1.50;;
6549;SDS011;15142;48.888;9.134;2023-05-07T14:12:52;2.80;;;2.33;;
6549;SDS011;15142;48.888;9.134;2023-05-07T14:15:21;1.40;;;1.30;;
6549;SDS011;15142;48.888;9.134;2023-05-07T14:17:50;1.37;;;1.27;;
6549;SDS011;15142;48.888;9.134;2023-05-07T14:20:20;1.20;;;1.20;;
6549;SDS011;15142;48.888;9.134;2023-05-07T14:22:48;1.00;;;1.00;;
6549;SDS011;15142;48.888;9.134;2023-05-07T14:25:17;2.90;;;1.40;;
6549;SDS011;15142;48.888;9.134;2023-05-07T14:27:53;1.50;;;1.40;;
6549;SDS011;15142;48.888;9.134;2023-05-07T14:30:22;1.20;;;1.10;;
6549;SDS011;15142;48.888;9.134;2023-05-07T14:32:51;2.30;;;1.20;;
6549;SDS011;15142;48.888;9.134;2023-05-07T14:35:20;2.00;;;1.17;;
6549;SDS011;15142;48.888;9.134;2023-05-07T14:37:48;2.83;;;2.07;;
6549;SDS011;15142;48.888;9.134;2023-05-07T14:40:17;1.67;;;1.57;;
6549;SDS011;15142;48.888;9.134;2023-05-07T14:42:46;6.13;;;1.30;;
6549;SDS011;15142;48.888;9.134;2023-05-07T14:45:17;7.80;;;1.70;;
6549;SDS011;15142;48.888;9.134;2023-05-07T14:47:46;3.60;;;1.90;;
6549;SDS011;15142;48.888;9.134;2023-05-07T14:50:15;2.13;;;1.93;;
6549;SDS011;15142;48.888;9.134;2023-05-07T14:52:44;2.23;;;2.03;;
6549;SDS011;15142;48.888;9.134;2023-05-07T14:55:12;2.53;;;1.67;;
6549;SDS011;15142;48.888;9.134;2023-05-07T14:57:41;2.80;;;2.10;;
6549;SDS011;15142;48.888;9.134;2023-05-07T15:00:10;1.90;;;1.60;;
6549;SDS011;15142;48.888;9.134;2023-05-07T15:02:43;5.10;;;2.47;;
6549;SDS011;15142;48.888;9.134;2023-05-07T15:05:12;3.23;;;2.03;;
6549;SDS011;15142;48.888;9.134;2023-05-07T15:07:41;9.40;;;2.20;;
6549;SDS011;15142;48.888;9.134;2023-05-07T15:10:09;1.60;;;1.33;;
6549;SDS011;15142;48.888;9.134;2023-05-07T15:12:38;3.13;;;2.23;;
6549;SDS011;15142;48.888;9.134;2023-05-07T15:15:07;2.93;;;1.93;;
6549;SDS011;15142;48.888;9.134;2023-05-07T15:17:37;1.87;;;1.73;;
6549;SDS011;15142;48.888;9.134;2023-05-07T15:20:09;2.10;;;2.00;;
6549;SDS011;15142;48.888;9.134;2023-05-07T15:22:38;3.27;;;2.37;;
6549;SDS011;15142;48.888;9.134;2023-05-07T15:25:07;2.30;;;2.13;;
6549;SDS011;15142;48.888;9.134;2023-05-07T15:27:37;1.57;;;1.43;;
6549;SDS011;15142;48.888;9.134;2023-05-07T15:30:07;1.83;;;1.73;;
6549;SDS011;15142;48.888;9.134;2023-05-07T15:32:37;1.97;;;1.73;;